sensor_id;sensor_type;location;lat;lon;timestamp;P1;durP1;ratioP1;P2;durP2;ratioP2
34204;SDS011;20471;49.680;20.074;2023-08-07T00:01:08;4.50;;;1.30;;
34204;SDS011;20471;49.680;20.074;2023-08-07T00:03:34;2.10;;;1.20;;
34204;SDS011;20471;49.680;20.074;2023-08-07T00:06:01;4.40;;;1.60;;
34204;SDS011;20471;49.680;20.074;2023-08-07T00:08:27;4.40;;;1.40;;
34204;SDS011;20471;49.680;20.074;2023-08-07T00:11:03;5.80;;;1.50;;
34204;SDS011;20471;49.680;20.074;2023-08-07T00:13:33;1.50;;;1.20;;
34204;SDS011;20471;49.680;20.074;2023-08-07T00:16:00;2.00;;;1.30;;
34204;SDS011;20471;49.680;20.074;2023-08-07T00:18:27;2.60;;;1.10;;
34204;SDS011;20471;49.680;20.074;2023-08-07T00:20:54;4.10;;;1.30;;
34204;SDS011;20471;49.680;20.074;2023-08-07T00:23:21;1.20;;;1.10;;
34204;SDS011;20471;49.680;20.074;2023-08-07T00:25:47;1.90;;;1.40;;
34204;SDS011;20471;49.680;20.074;2023-08-07T00:28:13;1.60;;;1.40;;
34204;SDS011;20471;49.680;20.074;2023-08-07T00:30:39;1.60;;;1.30;;
34204;SDS011;20471;49.680;20.074;2023-08-07T00:33:06;2.40;;;1.10;;
34204;SDS011;20471;49.680;20.074;2023-08-07T00:35:32;1.80;;;1.30;;
34204;SDS011;20471;49.680;20.074;2023-08-07T00:37:58;3.40;;;1.20;;
34204;SDS011;20471;49.680;20.074;2023-08-07T00:40:25;1.50;;;1.20;;
34204;SDS011;20471;49.680;20.074;2023-08-07T00:42:51;1.20;;;1.00;;
34204;SDS011;20471;49.680;20.074;2023-08-07T00:45:17;1.90;;;1.20;;
34204;SDS011;20471;49.680;20.074;2023-08-07T00:47:44;2.40;;;1.50;;
34204;SDS011;20471;49.680;20.074;2023-08-07T00:50:10;2.60;;;1.30;;
34204;SDS011;20471;49.680;20.074;2023-08-07T00:52:38;4.00;;;1.50;;
34204;SDS011;20471;49.680;20.074;2023-08-07T00:55:04;5.60;;;1.40;;
34204;SDS011;20471;49.680;20.074;2023-08-07T00:57:31;1.90;;;1.10;;
34204;SDS011;20471;49.680;20.074;2023-08-07T00:59:58;3.40;;;1.40;;
34204;SDS011;20471;49.680;20.074;2023-08-07T01:02:25;1.50;;;1.40;;
34204;SDS011;20471;49.680;20.074;2023-08-07T01:04:51;2.00;;;1.40;;
34204;SDS011;20471;49.680;20.074;2023-08-07T01:07:18;2.30;;;1.70;;
34204;SDS011;20471;49.680;20.074;2023-08-07T01:09:44;2.20;;;1.50;;
34204;SDS011;20471;49.680;20.074;2023-08-07T01:15:16;4.90;;;1.50;;
34204;SDS011;20471;49.680;20.074;2023-08-07T01:17:48;3.80;;;1.50;;
34204;SDS011;20471;49.680;20.074;2023-08-07T01:20:15;2.30;;;1.50;;
34204;SDS011;20471;49.680;20.074;2023-08-07T01:22:42;3.20;;;1.40;;
34204;SDS011;20471;49.680;20.074;2023-08-07T01:25:08;4.40;;;1.30;;
34204;SDS011;20471;49.680;20.074;2023-08-07T01:27:35;1.70;;;1.20;;
34204;SDS011;20471;49.680;20.074;2023-08-07T01:30:40;4.80;;;1.30;;
34204;SDS011;20471;49.680;20.074;2023-08-07T01:35:39;1.50;;;1.30;;
34204;SDS011;20471;49.680;20.074;2023-08-07T01:38:08;3.70;;;1.30;;
34204;SDS011;20471;49.680;20.074;2023-08-07T01:40:36;4.80;;;1.30;;
34204;SDS011;20471;49.680;20.074;2023-08-07T01:43:04;1.00;;;1.00;;
34204;SDS011;20471;49.680;20.074;2023-08-07T01:45:31;1.60;;;1.30;;
34204;SDS011;20471;49.680;20.074;2023-08-07T01:47:57;1.60;;;1.20;;
34204;SDS011;20471;49.680;20.074;2023-08-07T01:50:25;1.20;;;1.10;;
34204;SDS011;20471;49.680;20.074;2023-08-07T01:52:51;1.70;;;1.00;;
34204;SDS011;20471;49.680;20.074;2023-08-07T01:55:18;1.70;;;1.20;;
34204;SDS011;20471;49.680;20.074;2023-08-07T01:57:45;2.80;;;1.20;;
34204;SDS011;20471;49.680;20.074;2023-08-07T02:00:12;4.40;;;1.10;;
34204;SDS011;20471;49.680;20.074;2023-08-07T02:02:38;2.70;;;1.30;;
34204;SDS011;20471;49.680;20.074;2023-08-07T02:05:05;1.50;;;1.40;;
34204;SDS011;20471;49.680;20.074;2023-08-07T02:07:31;5.60;;;1.20;;
34204;SDS011;20471;49.680;20.074;2023-08-07T02:09:58;1.70;;;1.30;;
34204;SDS011;20471;49.680;20.074;2023-08-07T02:12:24;1.70;;;1.10;;
34204;SDS011;20471;49.680;20.074;2023-08-07T02:14:51;1.60;;;0.90;;
34204;SDS011;20471;49.680;20.074;2023-08-07T02:17:17;3.30;;;1.30;;
34204;SDS011;20471;49.680;20.074;2023-08-07T02:19:43;1.30;;;1.20;;
34204;SDS011;20471;49.680;20.074;2023-08-07T02:22:09;1.40;;;1.20;;
34204;SDS011;20471;49.680;20.074;2023-08-07T02:24:36;1.30;;;1.10;;
34204;SDS011;20471;49.680;20.074;2023-08-07T02:27:02;2.20;;;1.20;;
34204;SDS011;20471;49.680;20.074;2023-08-07T02:29:29;2.00;;;1.30;;
34204;SDS011;20471;49.680;20.074;2023-08-07T02:31:56;1.40;;;1.30;;
34204;SDS011;20471;49.680;20.074;2023-08-07T02:34:22;6.90;;;1.40;;
34204;SDS011;20471;49.680;20.074;2023-08-07T02:36:48;3.30;;;1.30;;
34204;SDS011;20471;49.680;20.074;2023-08-07T02:39:15;3.00;;;1.50;;
34204;SDS011;20471;49.680;20.074;2023-08-07T02:41:41;4.10;;;1.90;;
34204;SDS011;20471;49.680;20.074;2023-08-07T02:44:07;4.30;;;1.70;;
34204;SDS011;20471;49.680;20.074;2023-08-07T02:46:33;4.00;;;1.60;;
34204;SDS011;20471;49.680;20.074;2023-08-07T02:49:01;3.00;;;1.70;;
34204;SDS011;20471;49.680;20.074;2023-08-07T02:51:28;1.70;;;1.50;;
34204;SDS011;20471;49.680;20.074;2023-08-07T02:53:54;2.10;;;1.60;;
34204;SDS011;20471;49.680;20.074;2023-08-07T02:56:20;4.30;;;1.60;;
34204;SDS011;20471;49.680;20.074;2023-08-07T02:58:46;5.20;;;1.70;;
34204;SDS011;20471;49.680;20.074;2023-08-07T03:01:13;1.50;;;1.40;;
34204;SDS011;20471;49.680;20.074;2023-08-07T03:03:40;3.00;;;1.30;;
34204;SDS011;20471;49.680;20.074;2023-08-07T03:06:06;4.60;;;1.10;;
34204;SDS011;20471;49.680;20.074;2023-08-07T03:08:32;4.20;;;1.40;;
34204;SDS011;20471;49.680;20.074;2023-08-07T03:10:58;4.20;;;1.80;;
34204;SDS011;20471;49.680;20.074;2023-08-07T03:13:25;5.90;;;1.60;;
34204;SDS011;20471;49.680;20.074;2023-08-07T03:15:58;2.80;;;1.60;;
34204;SDS011;20471;49.680;20.074;2023-08-07T03:18:31;4.40;;;1.80;;
34204;SDS011;20471;49.680;20.074;2023-08-07T03:20:59;3.70;;;1.60;;
34204;SDS011;20471;49.680;20.074;2023-08-07T03:23:27;2.90;;;1.50;;
34204;SDS011;20471;49.680;20.074;2023-08-07T03:26:07;5.90;;;1.80;;
34204;SDS011;20471;49.680;20.074;2023-08-07T03:28:35;6.00;;;1.70;;
34204;SDS011;20471;49.680;20.074;2023-08-07T03:31:02;2.10;;;1.50;;
34204;SDS011;20471;49.680;20.074;2023-08-07T03:33:29;3.10;;;1.50;;
34204;SDS011;20471;49.680;20.074;2023-08-07T03:35:56;2.60;;;1.40;;
34204;SDS011;20471;49.680;20.074;2023-08-07T03:38:22;4.40;;;1.40;;
34204;SDS011;20471;49.680;20.074;2023-08-07T03:40:49;3.80;;;1.80;;
34204;SDS011;20471;49.680;20.074;2023-08-07T03:43:15;3.20;;;1.40;;
34204;SDS011;20471;49.680;20.074;2023-08-07T03:45:41;2.40;;;1.70;;
34204;SDS011;20471;49.680;20.074;2023-08-07T03:48:08;3.70;;;1.90;;
34204;SDS011;20471;49.680;20.074;2023-08-07T03:50:34;1.90;;;1.80;;
34204;SDS011;20471;49.680;20.074;2023-08-07T03:53:03;1.50;;;1.40;;
34204;SDS011;20471;49.680;20.074;2023-08-07T03:55:32;1.50;;;1.40;;
34204;SDS011;20471;49.680;20.074;2023-08-07T03:57:58;6.10;;;1.90;;
34204;SDS011;20471;49.680;20.074;2023-08-07T04:00:25;2.70;;;1.60;;
34204;SDS011;20471;49.680;20.074;2023-08-07T04:02:51;2.80;;;1.70;;
34204;SDS011;20471;49.680;20.074;2023-08-07T04:05:17;3.40;;;1.80;;
34204;SDS011;20471;49.680;20.074;2023-08-07T04:07:43;2.30;;;1.70;;
34204;SDS011;20471;49.680;20.074;2023-08-07T04:10:10;1.90;;;1.80;;
34204;SDS011;20471;49.680;20.074;2023-08-07T04:12:36;3.10;;;1.80;;
34204;SDS011;20471;49.680;20.074;2023-08-07T04:15:03;3.40;;;2.00;;
34204;SDS011;20471;49.680;20.074;2023-08-07T04:17:29;1.80;;;1.70;;
34204;SDS011;20471;49.680;20.074;2023-08-07T04:19:55;2.10;;;1.70;;
34204;SDS011;20471;49.680;20.074;2023-08-07T04:22:22;8.80;;;4.40;;
34204;SDS011;20471;49.680;20.074;2023-08-07T04:24:48;6.50;;;4.80;;
34204;SDS011;20471;49.680;20.074;2023-08-07T04:27:14;5.20;;;3.20;;
34204;SDS011;20471;49.680;20.074;2023-08-07T04:29:41;7.50;;;5.30;;
34204;SDS011;20471;49.680;20.074;2023-08-07T04:32:07;9.10;;;6.70;;
34204;SDS011;20471;49.680;20.074;2023-08-07T04:34:33;6.30;;;5.10;;
34204;SDS011;20471;49.680;20.074;2023-08-07T04:37:00;5.50;;;2.60;;
34204;SDS011;20471;49.680;20.074;2023-08-07T04:39:27;5.50;;;3.20;;
34204;SDS011;20471;49.680;20.074;2023-08-07T04:41:54;3.80;;;2.70;;
34204;SDS011;20471;49.680;20.074;2023-08-07T04:44:20;3.80;;;2.80;;
34204;SDS011;20471;49.680;20.074;2023-08-07T04:46:46;3.40;;;2.40;;
34204;SDS011;20471;49.680;20.074;2023-08-07T04:49:12;5.50;;;2.10;;
34204;SDS011;20471;49.680;20.074;2023-08-07T04:51:39;1.90;;;1.70;;
34204;SDS011;20471;49.680;20.074;2023-08-07T04:54:05;2.10;;;1.90;;
34204;SDS011;20471;49.680;20.074;2023-08-07T04:56:31;2.60;;;2.00;;
34204;SDS011;20471;49.680;20.074;2023-08-07T04:58:58;3.40;;;1.90;;
34204;SDS011;20471;49.680;20.074;2023-08-07T05:01:24;2.10;;;1.60;;
34204;SDS011;20471;49.680;20.074;2023-08-07T05:03:50;1.60;;;1.50;;
34204;SDS011;20471;49.680;20.074;2023-08-07T05:06:16;4.70;;;1.60;;
34204;SDS011;20471;49.680;20.074;2023-08-07T05:08:43;4.20;;;1.60;;
34204;SDS011;20471;49.680;20.074;2023-08-07T05:11:09;1.60;;;1.50;;
34204;SDS011;20471;49.680;20.074;2023-08-07T05:13:35;2.60;;;1.70;;
34204;SDS011;20471;49.680;20.074;2023-08-07T05:16:02;2.00;;;1.80;;
34204;SDS011;20471;49.680;20.074;2023-08-07T05:18:28;2.50;;;1.60;;
34204;SDS011;20471;49.680;20.074;2023-08-07T05:20:54;2.20;;;2.00;;
34204;SDS011;20471;49.680;20.074;2023-08-07T05:23:20;1.90;;;1.40;;
34204;SDS011;20471;49.680;20.074;2023-08-07T05:25:47;2.40;;;1.80;;
34204;SDS011;20471;49.680;20.074;2023-08-07T05:28:13;4.90;;;2.10;;
34204;SDS011;20471;49.680;20.074;2023-08-07T05:30:40;3.50;;;1.90;;
34204;SDS011;20471;49.680;20.074;2023-08-07T05:33:06;2.30;;;1.90;;
34204;SDS011;20471;49.680;20.074;2023-08-07T05:35:32;2.00;;;1.80;;
34204;SDS011;20471;49.680;20.074;2023-08-07T05:37:59;2.30;;;1.50;;
34204;SDS011;20471;49.680;20.074;2023-08-07T05:40:25;1.70;;;1.60;;
34204;SDS011;20471;49.680;20.074;2023-08-07T05:42:51;2.20;;;1.60;;
34204;SDS011;20471;49.680;20.074;2023-08-07T05:45:17;2.80;;;1.60;;
34204;SDS011;20471;49.680;20.074;2023-08-07T05:47:44;1.80;;;1.50;;
34204;SDS011;20471;49.680;20.074;2023-08-07T05:50:10;3.80;;;1.30;;
34204;SDS011;20471;49.680;20.074;2023-08-07T05:52:36;2.10;;;1.40;;
34204;SDS011;20471;49.680;20.074;2023-08-07T05:55:06;1.80;;;1.70;;
34204;SDS011;20471;49.680;20.074;2023-08-07T05:57:33;3.60;;;3.20;;
34204;SDS011;20471;49.680;20.074;2023-08-07T06:00:00;2.80;;;2.40;;
34204;SDS011;20471;49.680;20.074;2023-08-07T06:02:26;3.30;;;3.00;;
34204;SDS011;20471;49.680;20.074;2023-08-07T06:04:53;3.30;;;2.00;;
34204;SDS011;20471;49.680;20.074;2023-08-07T06:07:19;3.00;;;1.70;;
34204;SDS011;20471;49.680;20.074;2023-08-07T06:09:46;1.40;;;1.30;;
34204;SDS011;20471;49.680;20.074;2023-08-07T06:12:12;1.70;;;1.60;;
34204;SDS011;20471;49.680;20.074;2023-08-07T06:14:38;1.80;;;1.00;;
34204;SDS011;20471;49.680;20.074;2023-08-07T06:17:05;2.30;;;1.20;;
34204;SDS011;20471;49.680;20.074;2023-08-07T06:19:31;1.50;;;1.00;;
34204;SDS011;20471;49.680;20.074;2023-08-07T06:21:58;0.90;;;0.90;;
34204;SDS011;20471;49.680;20.074;2023-08-07T06:24:24;1.00;;;0.90;;
34204;SDS011;20471;49.680;20.074;2023-08-07T06:26:51;0.60;;;0.60;;
34204;SDS011;20471;49.680;20.074;2023-08-07T06:29:17;1.10;;;1.00;;
34204;SDS011;20471;49.680;20.074;2023-08-07T06:31:43;1.40;;;1.00;;
34204;SDS011;20471;49.680;20.074;2023-08-07T06:34:10;1.30;;;1.20;;
34204;SDS011;20471;49.680;20.074;2023-08-07T06:36:36;0.80;;;0.80;;
34204;SDS011;20471;49.680;20.074;2023-08-07T06:39:02;1.10;;;0.90;;
34204;SDS011;20471;49.680;20.074;2023-08-07T06:41:29;2.70;;;0.80;;
34204;SDS011;20471;49.680;20.074;2023-08-07T06:43:55;1.90;;;0.70;;
34204;SDS011;20471;49.680;20.074;2023-08-07T06:46:22;0.60;;;0.60;;
34204;SDS011;20471;49.680;20.074;2023-08-07T06:48:52;0.70;;;0.70;;
34204;SDS011;20471;49.680;20.074;2023-08-07T06:51:18;1.30;;;0.90;;
34204;SDS011;20471;49.680;20.074;2023-08-07T06:53:44;2.30;;;1.20;;
34204;SDS011;20471;49.680;20.074;2023-08-07T06:56:11;1.60;;;0.70;;
34204;SDS011;20471;49.680;20.074;2023-08-07T06:58:37;1.60;;;0.90;;
34204;SDS011;20471;49.680;20.074;2023-08-07T07:01:03;1.50;;;1.10;;
34204;SDS011;20471;49.680;20.074;2023-08-07T07:03:30;1.50;;;1.40;;
34204;SDS011;20471;49.680;20.074;2023-08-07T07:05:56;1.00;;;1.00;;
34204;SDS011;20471;49.680;20.074;2023-08-07T07:08:22;2.90;;;1.00;;
34204;SDS011;20471;49.680;20.074;2023-08-07T07:10:49;2.80;;;0.80;;
34204;SDS011;20471;49.680;20.074;2023-08-07T07:13:15;1.50;;;0.80;;
34204;SDS011;20471;49.680;20.074;2023-08-07T07:15:41;0.40;;;0.40;;
34204;SDS011;20471;49.680;20.074;2023-08-07T07:18:08;1.30;;;0.50;;
34204;SDS011;20471;49.680;20.074;2023-08-07T07:20:34;1.10;;;0.50;;
34204;SDS011;20471;49.680;20.074;2023-08-07T07:23:00;2.20;;;0.60;;
34204;SDS011;20471;49.680;20.074;2023-08-07T07:25:26;1.30;;;0.50;;
34204;SDS011;20471;49.680;20.074;2023-08-07T07:27:53;1.30;;;0.70;;
34204;SDS011;20471;49.680;20.074;2023-08-07T07:30:19;0.90;;;0.70;;
34204;SDS011;20471;49.680;20.074;2023-08-07T07:32:46;1.00;;;0.60;;
34204;SDS011;20471;49.680;20.074;2023-08-07T07:35:12;1.40;;;0.60;;
34204;SDS011;20471;49.680;20.074;2023-08-07T07:37:38;0.70;;;0.70;;
34204;SDS011;20471;49.680;20.074;2023-08-07T07:40:05;2.00;;;0.60;;
34204;SDS011;20471;49.680;20.074;2023-08-07T07:42:32;1.00;;;0.80;;
34204;SDS011;20471;49.680;20.074;2023-08-07T07:44:58;0.60;;;0.60;;
34204;SDS011;20471;49.680;20.074;2023-08-07T07:47:24;0.80;;;0.70;;
34204;SDS011;20471;49.680;20.074;2023-08-07T07:50:03;2.70;;;1.20;;
34204;SDS011;20471;49.680;20.074;2023-08-07T07:52:34;0.80;;;0.80;;
34204;SDS011;20471;49.680;20.074;2023-08-07T07:55:01;1.50;;;0.90;;
34204;SDS011;20471;49.680;20.074;2023-08-07T07:57:28;0.60;;;0.60;;
34204;SDS011;20471;49.680;20.074;2023-08-07T07:59:54;0.80;;;0.60;;
34204;SDS011;20471;49.680;20.074;2023-08-07T08:02:21;0.30;;;0.30;;
34204;SDS011;20471;49.680;20.074;2023-08-07T08:04:48;0.60;;;0.40;;
34204;SDS011;20471;49.680;20.074;2023-08-07T08:07:14;1.60;;;0.40;;
34204;SDS011;20471;49.680;20.074;2023-08-07T08:09:41;0.30;;;0.30;;
34204;SDS011;20471;49.680;20.074;2023-08-07T08:12:07;1.50;;;0.80;;
34204;SDS011;20471;49.680;20.074;2023-08-07T08:14:34;0.70;;;0.50;;
34204;SDS011;20471;49.680;20.074;2023-08-07T08:17:00;0.90;;;0.60;;
34204;SDS011;20471;49.680;20.074;2023-08-07T08:19:27;1.80;;;0.60;;
34204;SDS011;20471;49.680;20.074;2023-08-07T08:21:53;0.30;;;0.30;;
34204;SDS011;20471;49.680;20.074;2023-08-07T08:24:19;1.10;;;0.60;;
34204;SDS011;20471;49.680;20.074;2023-08-07T08:26:46;1.20;;;0.50;;
34204;SDS011;20471;49.680;20.074;2023-08-07T08:29:13;0.80;;;0.30;;
34204;SDS011;20471;49.680;20.074;2023-08-07T08:31:40;2.20;;;0.30;;
34204;SDS011;20471;49.680;20.074;2023-08-07T08:34:06;0.30;;;0.30;;
34204;SDS011;20471;49.680;20.074;2023-08-07T08:36:33;0.60;;;0.30;;
34204;SDS011;20471;49.680;20.074;2023-08-07T08:38:59;1.10;;;0.30;;
34204;SDS011;20471;49.680;20.074;2023-08-07T08:41:25;0.30;;;0.20;;
34204;SDS011;20471;49.680;20.074;2023-08-07T08:43:52;0.60;;;0.30;;
34204;SDS011;20471;49.680;20.074;2023-08-07T08:46:20;0.20;;;0.20;;
34204;SDS011;20471;49.680;20.074;2023-08-07T08:48:50;0.40;;;0.30;;
34204;SDS011;20471;49.680;20.074;2023-08-07T08:51:17;0.40;;;0.20;;
34204;SDS011;20471;49.680;20.074;2023-08-07T08:53:47;0.30;;;0.30;;
34204;SDS011;20471;49.680;20.074;2023-08-07T08:56:15;1.30;;;0.70;;
34204;SDS011;20471;49.680;20.074;2023-08-07T08:58:42;0.60;;;0.60;;
34204;SDS011;20471;49.680;20.074;2023-08-07T09:01:09;1.50;;;0.60;;
34204;SDS011;20471;49.680;20.074;2023-08-07T09:03:36;1.00;;;0.60;;
34204;SDS011;20471;49.680;20.074;2023-08-07T09:06:03;0.90;;;0.60;;
34204;SDS011;20471;49.680;20.074;2023-08-07T09:08:32;1.30;;;0.60;;
34204;SDS011;20471;49.680;20.074;2023-08-07T09:10:58;1.70;;;0.60;;
34204;SDS011;20471;49.680;20.074;2023-08-07T09:13:25;0.60;;;0.30;;
34204;SDS011;20471;49.680;20.074;2023-08-07T09:15:54;1.10;;;0.60;;
34204;SDS011;20471;49.680;20.074;2023-08-07T09:18:24;0.40;;;0.30;;
34204;SDS011;20471;49.680;20.074;2023-08-07T09:20:51;1.40;;;0.20;;
34204;SDS011;20471;49.680;20.074;2023-08-07T09:23:17;1.50;;;0.20;;
34204;SDS011;20471;49.680;20.074;2023-08-07T09:25:45;0.20;;;0.20;;
34204;SDS011;20471;49.680;20.074;2023-08-07T09:28:11;0.20;;;0.20;;
34204;SDS011;20471;49.680;20.074;2023-08-07T09:30:38;1.00;;;0.30;;
34204;SDS011;20471;49.680;20.074;2023-08-07T09:33:05;0.10;;;0.10;;
34204;SDS011;20471;49.680;20.074;2023-08-07T09:35:31;0.30;;;0.20;;
34204;SDS011;20471;49.680;20.074;2023-08-07T09:37:58;1.40;;;0.30;;
34204;SDS011;20471;49.680;20.074;2023-08-07T09:40:25;0.20;;;0.20;;
34204;SDS011;20471;49.680;20.074;2023-08-07T09:42:52;0.60;;;0.20;;
34204;SDS011;20471;49.680;20.074;2023-08-07T09:45:20;1.40;;;0.30;;
34204;SDS011;20471;49.680;20.074;2023-08-07T09:50:29;0.50;;;0.30;;
34204;SDS011;20471;49.680;20.074;2023-08-07T09:52:57;0.90;;;0.20;;
34204;SDS011;20471;49.680;20.074;2023-08-07T09:55:24;0.30;;;0.20;;
34204;SDS011;20471;49.680;20.074;2023-08-07T09:57:51;0.20;;;0.20;;
34204;SDS011;20471;49.680;20.074;2023-08-07T10:00:18;1.80;;;0.30;;
34204;SDS011;20471;49.680;20.074;2023-08-07T10:02:45;0.20;;;0.20;;
34204;SDS011;20471;49.680;20.074;2023-08-07T10:05:13;1.80;;;0.20;;
34204;SDS011;20471;49.680;20.074;2023-08-07T10:07:40;2.00;;;0.20;;
34204;SDS011;20471;49.680;20.074;2023-08-07T10:10:07;0.30;;;0.10;;
34204;SDS011;20471;49.680;20.074;2023-08-07T10:12:35;0.50;;;0.50;;
34204;SDS011;20471;49.680;20.074;2023-08-07T10:15:02;0.60;;;0.40;;
34204;SDS011;20471;49.680;20.074;2023-08-07T10:17:29;0.70;;;0.50;;
34204;SDS011;20471;49.680;20.074;2023-08-07T10:19:57;0.90;;;0.50;;
34204;SDS011;20471;49.680;20.074;2023-08-07T10:22:25;0.50;;;0.40;;
34204;SDS011;20471;49.680;20.074;2023-08-07T10:24:53;0.80;;;0.30;;
34204;SDS011;20471;49.680;20.074;2023-08-07T10:27:22;1.90;;;0.30;;
34204;SDS011;20471;49.680;20.074;2023-08-07T10:29:50;0.10;;;0.10;;
34204;SDS011;20471;49.680;20.074;2023-08-07T10:32:19;1.50;;;0.20;;
34204;SDS011;20471;49.680;20.074;2023-08-07T10:34:46;0.20;;;0.10;;
34204;SDS011;20471;49.680;20.074;2023-08-07T10:40:09;0.20;;;0.20;;
34204;SDS011;20471;49.680;20.074;2023-08-07T10:45:27;1.30;;;0.10;;
34204;SDS011;20471;49.680;20.074;2023-08-07T10:48:07;0.20;;;0.20;;
34204;SDS011;20471;49.680;20.074;2023-08-07T10:53:28;2.60;;;0.20;;
34204;SDS011;20471;49.680;20.074;2023-08-07T10:55:56;0.20;;;0.20;;
34204;SDS011;20471;49.680;20.074;2023-08-07T11:03:46;1.20;;;0.20;;
34204;SDS011;20471;49.680;20.074;2023-08-07T11:06:15;0.30;;;0.20;;
34204;SDS011;20471;49.680;20.074;2023-08-07T11:08:42;0.20;;;0.20;;
34204;SDS011;20471;49.680;20.074;2023-08-07T11:11:08;0.40;;;0.20;;
34204;SDS011;20471;49.680;20.074;2023-08-07T11:13:35;0.50;;;0.20;;
34204;SDS011;20471;49.680;20.074;2023-08-07T11:16:02;0.30;;;0.10;;
34204;SDS011;20471;49.680;20.074;2023-08-07T11:18:29;0.20;;;0.20;;
34204;SDS011;20471;49.680;20.074;2023-08-07T11:20:56;0.30;;;0.30;;
34204;SDS011;20471;49.680;20.074;2023-08-07T11:23:24;0.40;;;0.20;;
34204;SDS011;20471;49.680;20.074;2023-08-07T11:25:54;1.00;;;0.30;;
34204;SDS011;20471;49.680;20.074;2023-08-07T11:28:21;0.20;;;0.20;;
34204;SDS011;20471;49.680;20.074;2023-08-07T11:30:49;1.60;;;0.30;;
34204;SDS011;20471;49.680;20.074;2023-08-07T11:33:17;0.40;;;0.20;;
34204;SDS011;20471;49.680;20.074;2023-08-07T11:35:47;0.70;;;0.40;;
34204;SDS011;20471;49.680;20.074;2023-08-07T11:41:03;0.50;;;0.40;;
34204;SDS011;20471;49.680;20.074;2023-08-07T11:43:31;2.70;;;0.80;;
34204;SDS011;20471;49.680;20.074;2023-08-07T11:45:59;0.70;;;0.30;;
34204;SDS011;20471;49.680;20.074;2023-08-07T11:48:30;1.00;;;0.40;;
34204;SDS011;20471;49.680;20.074;2023-08-07T11:50:59;0.20;;;0.20;;
34204;SDS011;20471;49.680;20.074;2023-08-07T11:53:27;0.20;;;0.20;;
34204;SDS011;20471;49.680;20.074;2023-08-07T11:58:21;0.70;;;0.30;;
34204;SDS011;20471;49.680;20.074;2023-08-07T12:00:48;2.00;;;0.50;;
34204;SDS011;20471;49.680;20.074;2023-08-07T12:03:27;3.10;;;0.70;;
34204;SDS011;20471;49.680;20.074;2023-08-07T12:05:55;0.20;;;0.10;;
34204;SDS011;20471;49.680;20.074;2023-08-07T12:08:23;0.80;;;0.40;;
34204;SDS011;20471;49.680;20.074;2023-08-07T12:10:51;0.90;;;0.50;;
34204;SDS011;20471;49.680;20.074;2023-08-07T12:13:20;0.80;;;0.20;;
34204;SDS011;20471;49.680;20.074;2023-08-07T12:15:56;0.50;;;0.40;;
34204;SDS011;20471;49.680;20.074;2023-08-07T12:18:24;0.40;;;0.30;;
34204;SDS011;20471;49.680;20.074;2023-08-07T12:20:53;0.30;;;0.20;;
34204;SDS011;20471;49.680;20.074;2023-08-07T12:23:24;0.60;;;0.50;;
34204;SDS011;20471;49.680;20.074;2023-08-07T12:25:50;0.30;;;0.30;;
34204;SDS011;20471;49.680;20.074;2023-08-07T12:28:18;2.70;;;0.50;;
34204;SDS011;20471;49.680;20.074;2023-08-07T12:30:45;0.20;;;0.20;;
34204;SDS011;20471;49.680;20.074;2023-08-07T12:33:12;0.50;;;0.30;;
34204;SDS011;20471;49.680;20.074;2023-08-07T12:35:40;0.90;;;0.30;;
34204;SDS011;20471;49.680;20.074;2023-08-07T12:38:07;0.30;;;0.30;;
34204;SDS011;20471;49.680;20.074;2023-08-07T12:40:33;2.00;;;0.50;;
34204;SDS011;20471;49.680;20.074;2023-08-07T12:43:02;0.30;;;0.30;;
34204;SDS011;20471;49.680;20.074;2023-08-07T12:45:28;0.40;;;0.20;;
34204;SDS011;20471;49.680;20.074;2023-08-07T12:47:55;1.90;;;0.20;;
34204;SDS011;20471;49.680;20.074;2023-08-07T12:50:21;2.80;;;0.70;;
34204;SDS011;20471;49.680;20.074;2023-08-07T12:52:48;2.50;;;0.70;;
34204;SDS011;20471;49.680;20.074;2023-08-07T12:55:14;0.70;;;0.50;;
34204;SDS011;20471;49.680;20.074;2023-08-07T12:57:43;1.10;;;0.40;;
34204;SDS011;20471;49.680;20.074;2023-08-07T13:00:10;0.40;;;0.40;;
34204;SDS011;20471;49.680;20.074;2023-08-07T13:02:40;0.70;;;0.50;;
34204;SDS011;20471;49.680;20.074;2023-08-07T13:05:08;0.40;;;0.40;;
34204;SDS011;20471;49.680;20.074;2023-08-07T13:07:35;0.30;;;0.30;;
34204;SDS011;20471;49.680;20.074;2023-08-07T13:10:01;1.30;;;0.70;;
34204;SDS011;20471;49.680;20.074;2023-08-07T13:12:28;1.20;;;0.90;;
34204;SDS011;20471;49.680;20.074;2023-08-07T13:14:54;1.40;;;1.00;;
34204;SDS011;20471;49.680;20.074;2023-08-07T13:17:20;0.90;;;0.80;;
34204;SDS011;20471;49.680;20.074;2023-08-07T13:19:47;0.80;;;0.60;;
34204;SDS011;20471;49.680;20.074;2023-08-07T13:22:13;1.40;;;1.20;;
34204;SDS011;20471;49.680;20.074;2023-08-07T13:24:39;0.80;;;0.50;;
34204;SDS011;20471;49.680;20.074;2023-08-07T13:27:06;1.00;;;0.50;;
34204;SDS011;20471;49.680;20.074;2023-08-07T13:29:32;0.80;;;0.50;;
34204;SDS011;20471;49.680;20.074;2023-08-07T13:31:58;0.80;;;0.60;;
34204;SDS011;20471;49.680;20.074;2023-08-07T13:34:25;0.90;;;0.60;;
34204;SDS011;20471;49.680;20.074;2023-08-07T13:36:51;1.60;;;0.30;;
34204;SDS011;20471;49.680;20.074;2023-08-07T13:39:17;1.50;;;0.70;;
34204;SDS011;20471;49.680;20.074;2023-08-07T13:41:44;1.00;;;0.40;;
34204;SDS011;20471;49.680;20.074;2023-08-07T13:44:10;0.50;;;0.40;;
34204;SDS011;20471;49.680;20.074;2023-08-07T13:46:37;1.70;;;0.50;;
34204;SDS011;20471;49.680;20.074;2023-08-07T13:49:03;1.60;;;0.80;;
34204;SDS011;20471;49.680;20.074;2023-08-07T13:51:29;0.90;;;0.70;;
34204;SDS011;20471;49.680;20.074;2023-08-07T13:53:56;0.70;;;0.40;;
34204;SDS011;20471;49.680;20.074;2023-08-07T13:56:22;3.20;;;0.90;;
34204;SDS011;20471;49.680;20.074;2023-08-07T13:58:48;2.00;;;0.60;;
34204;SDS011;20471;49.680;20.074;2023-08-07T14:01:14;1.00;;;0.60;;
34204;SDS011;20471;49.680;20.074;2023-08-07T14:03:41;0.60;;;0.60;;
34204;SDS011;20471;49.680;20.074;2023-08-07T14:06:07;0.80;;;0.70;;
34204;SDS011;20471;49.680;20.074;2023-08-07T14:08:33;3.50;;;1.20;;
34204;SDS011;20471;49.680;20.074;2023-08-07T14:11:00;3.90;;;1.50;;
34204;SDS011;20471;49.680;20.074;2023-08-07T14:13:26;2.50;;;1.50;;
34204;SDS011;20471;49.680;20.074;2023-08-07T14:15:53;2.70;;;1.50;;
34204;SDS011;20471;49.680;20.074;2023-08-07T14:18:19;2.70;;;1.70;;
34204;SDS011;20471;49.680;20.074;2023-08-07T14:20:45;3.50;;;1.80;;
34204;SDS011;20471;49.680;20.074;2023-08-07T14:23:12;3.00;;;1.40;;
34204;SDS011;20471;49.680;20.074;2023-08-07T14:25:38;2.50;;;1.60;;
34204;SDS011;20471;49.680;20.074;2023-08-07T14:28:04;2.90;;;1.70;;
34204;SDS011;20471;49.680;20.074;2023-08-07T14:30:33;2.00;;;1.30;;
34204;SDS011;20471;49.680;20.074;2023-08-07T14:32:59;3.40;;;1.50;;
34204;SDS011;20471;49.680;20.074;2023-08-07T14:35:25;7.00;;;1.70;;
34204;SDS011;20471;49.680;20.074;2023-08-07T14:37:54;2.90;;;1.40;;
34204;SDS011;20471;49.680;20.074;2023-08-07T14:40:21;2.00;;;1.50;;
34204;SDS011;20471;49.680;20.074;2023-08-07T14:42:47;2.20;;;1.80;;
34204;SDS011;20471;49.680;20.074;2023-08-07T14:45:14;2.60;;;2.10;;
34204;SDS011;20471;49.680;20.074;2023-08-07T14:47:41;2.40;;;1.80;;
34204;SDS011;20471;49.680;20.074;2023-08-07T14:50:07;2.50;;;1.90;;
34204;SDS011;20471;49.680;20.074;2023-08-07T14:52:34;5.90;;;2.60;;
34204;SDS011;20471;49.680;20.074;2023-08-07T14:55:00;2.50;;;1.90;;
34204;SDS011;20471;49.680;20.074;2023-08-07T14:57:27;7.90;;;2.30;;
34204;SDS011;20471;49.680;20.074;2023-08-07T14:59:53;3.60;;;1.90;;